sensor_id;sensor_type;location;lat;lon;timestamp;P1;durP1;ratioP1;P2;durP2;ratioP2
12719;SDS011;6424;48.520;11.228;2024-01-11T00:01:12;60.23;;;28.53;;
12719;SDS011;6424;48.520;11.228;2024-01-11T00:03:57;54.07;;;28.37;;
12719;SDS011;6424;48.520;11.228;2024-01-11T00:06:44;52.60;;;27.17;;
12719;SDS011;6424;48.520;11.228;2024-01-11T00:09:28;54.40;;;26.73;;
12719;SDS011;6424;48.520;11.228;2024-01-11T00:12:12;48.87;;;25.90;;
12719;SDS011;6424;48.520;11.228;2024-01-11T00:14:57;50.73;;;25.70;;
12719;SDS011;6424;48.520;11.228;2024-01-11T00:17:42;62.93;;;29.20;;
12719;SDS011;6424;48.520;11.228;2024-01-11T00:20:26;53.03;;;27.70;;
12719;SDS011;6424;48.520;11.228;2024-01-11T00:23:11;71.43;;;34.20;;
12719;SDS011;6424;48.520;11.228;2024-01-11T00:25:55;63.50;;;32.13;;
12719;SDS011;6424;48.520;11.228;2024-01-11T00:28:39;61.00;;;31.30;;
12719;SDS011;6424;48.520;11.228;2024-01-11T00:31:24;60.60;;;31.37;;
12719;SDS011;6424;48.520;11.228;2024-01-11T00:34:08;59.67;;;28.80;;
12719;SDS011;6424;48.520;11.228;2024-01-11T00:36:53;57.30;;;29.07;;
12719;SDS011;6424;48.520;11.228;2024-01-11T00:39:37;52.53;;;26.07;;
12719;SDS011;6424;48.520;11.228;2024-01-11T00:42:21;61.33;;;30.40;;
12719;SDS011;6424;48.520;11.228;2024-01-11T00:45:05;54.17;;;26.47;;
12719;SDS011;6424;48.520;11.228;2024-01-11T00:47:50;49.10;;;26.47;;
12719;SDS011;6424;48.520;11.228;2024-01-11T00:50:34;52.83;;;26.67;;
12719;SDS011;6424;48.520;11.228;2024-01-11T00:53:18;53.67;;;26.97;;
12719;SDS011;6424;48.520;11.228;2024-01-11T00:56:03;46.73;;;24.93;;
12719;SDS011;6424;48.520;11.228;2024-01-11T00:58:47;47.23;;;25.87;;
12719;SDS011;6424;48.520;11.228;2024-01-11T01:01:31;50.07;;;26.93;;
12719;SDS011;6424;48.520;11.228;2024-01-11T01:04:16;47.33;;;26.10;;
12719;SDS011;6424;48.520;11.228;2024-01-11T01:07:00;54.70;;;28.40;;
12719;SDS011;6424;48.520;11.228;2024-01-11T01:09:44;51.73;;;26.30;;
12719;SDS011;6424;48.520;11.228;2024-01-11T01:12:28;50.80;;;28.07;;
12719;SDS011;6424;48.520;11.228;2024-01-11T01:15:12;53.30;;;27.47;;
12719;SDS011;6424;48.520;11.228;2024-01-11T01:17:58;50.57;;;26.70;;
12719;SDS011;6424;48.520;11.228;2024-01-11T01:20:42;56.37;;;27.57;;
12719;SDS011;6424;48.520;11.228;2024-01-11T01:23:26;57.63;;;27.70;;
12719;SDS011;6424;48.520;11.228;2024-01-11T01:26:11;52.10;;;26.17;;
12719;SDS011;6424;48.520;11.228;2024-01-11T01:28:55;52.63;;;25.70;;
12719;SDS011;6424;48.520;11.228;2024-01-11T01:31:39;52.83;;;25.87;;
12719;SDS011;6424;48.520;11.228;2024-01-11T01:34:24;49.50;;;25.80;;
12719;SDS011;6424;48.520;11.228;2024-01-11T01:37:08;47.60;;;24.27;;
12719;SDS011;6424;48.520;11.228;2024-01-11T01:39:52;53.63;;;24.97;;
12719;SDS011;6424;48.520;11.228;2024-01-11T01:42:40;53.67;;;26.10;;
12719;SDS011;6424;48.520;11.228;2024-01-11T01:45:28;49.23;;;24.57;;
12719;SDS011;6424;48.520;11.228;2024-01-11T01:48:12;46.83;;;25.33;;
12719;SDS011;6424;48.520;11.228;2024-01-11T01:50:57;56.57;;;25.17;;
12719;SDS011;6424;48.520;11.228;2024-01-11T01:53:41;53.37;;;26.30;;
12719;SDS011;6424;48.520;11.228;2024-01-11T01:56:26;50.10;;;24.10;;
12719;SDS011;6424;48.520;11.228;2024-01-11T01:59:10;46.93;;;24.77;;
12719;SDS011;6424;48.520;11.228;2024-01-11T02:01:56;51.37;;;25.77;;
12719;SDS011;6424;48.520;11.228;2024-01-11T02:04:41;50.67;;;25.80;;
12719;SDS011;6424;48.520;11.228;2024-01-11T02:07:26;48.70;;;23.50;;
12719;SDS011;6424;48.520;11.228;2024-01-11T02:10:11;47.90;;;24.73;;
12719;SDS011;6424;48.520;11.228;2024-01-11T02:12:56;53.10;;;25.43;;
12719;SDS011;6424;48.520;11.228;2024-01-11T02:15:40;50.97;;;25.50;;
12719;SDS011;6424;48.520;11.228;2024-01-11T02:18:24;54.63;;;26.30;;
12719;SDS011;6424;48.520;11.228;2024-01-11T02:21:08;51.40;;;23.50;;
12719;SDS011;6424;48.520;11.228;2024-01-11T02:23:58;49.63;;;25.60;;
12719;SDS011;6424;48.520;11.228;2024-01-11T02:26:58;53.23;;;25.70;;
12719;SDS011;6424;48.520;11.228;2024-01-11T02:29:46;46.23;;;22.97;;
12719;SDS011;6424;48.520;11.228;2024-01-11T02:32:30;46.83;;;23.93;;
12719;SDS011;6424;48.520;11.228;2024-01-11T02:35:15;48.60;;;24.63;;
12719;SDS011;6424;48.520;11.228;2024-01-11T02:37:59;48.03;;;23.83;;
12719;SDS011;6424;48.520;11.228;2024-01-11T02:40:45;44.80;;;24.47;;
12719;SDS011;6424;48.520;11.228;2024-01-11T02:43:30;44.53;;;21.80;;
12719;SDS011;6424;48.520;11.228;2024-01-11T02:46:15;40.77;;;22.10;;
12719;SDS011;6424;48.520;11.228;2024-01-11T02:49:00;46.90;;;23.33;;
12719;SDS011;6424;48.520;11.228;2024-01-11T02:51:44;52.13;;;25.00;;
12719;SDS011;6424;48.520;11.228;2024-01-11T02:54:29;47.63;;;23.33;;
12719;SDS011;6424;48.520;11.228;2024-01-11T02:57:13;49.07;;;24.70;;
12719;SDS011;6424;48.520;11.228;2024-01-11T02:59:57;53.43;;;24.27;;
12719;SDS011;6424;48.520;11.228;2024-01-11T03:02:41;48.03;;;25.47;;
12719;SDS011;6424;48.520;11.228;2024-01-11T03:05:25;52.27;;;24.47;;
12719;SDS011;6424;48.520;11.228;2024-01-11T03:08:09;52.93;;;25.27;;
12719;SDS011;6424;48.520;11.228;2024-01-11T03:10:54;47.43;;;24.30;;
12719;SDS011;6424;48.520;11.228;2024-01-11T03:13:39;48.07;;;24.33;;
12719;SDS011;6424;48.520;11.228;2024-01-11T03:16:23;51.90;;;25.97;;
12719;SDS011;6424;48.520;11.228;2024-01-11T03:19:07;47.17;;;24.63;;
12719;SDS011;6424;48.520;11.228;2024-01-11T03:21:51;53.50;;;26.33;;
12719;SDS011;6424;48.520;11.228;2024-01-11T03:24:38;43.60;;;23.83;;
12719;SDS011;6424;48.520;11.228;2024-01-11T03:27:23;51.40;;;24.93;;
12719;SDS011;6424;48.520;11.228;2024-01-11T03:30:07;46.07;;;24.13;;
12719;SDS011;6424;48.520;11.228;2024-01-11T03:32:51;49.83;;;22.93;;
12719;SDS011;6424;48.520;11.228;2024-01-11T03:35:35;45.60;;;23.63;;
12719;SDS011;6424;48.520;11.228;2024-01-11T03:38:22;42.97;;;23.40;;
12719;SDS011;6424;48.520;11.228;2024-01-11T03:41:09;48.50;;;24.17;;
12719;SDS011;6424;48.520;11.228;2024-01-11T03:43:54;47.07;;;23.47;;
12719;SDS011;6424;48.520;11.228;2024-01-11T03:46:38;47.77;;;24.10;;
12719;SDS011;6424;48.520;11.228;2024-01-11T03:49:22;52.47;;;24.97;;
12719;SDS011;6424;48.520;11.228;2024-01-11T03:52:07;46.50;;;24.40;;
12719;SDS011;6424;48.520;11.228;2024-01-11T03:54:51;51.27;;;24.83;;
12719;SDS011;6424;48.520;11.228;2024-01-11T03:57:36;47.77;;;23.67;;
12719;SDS011;6424;48.520;11.228;2024-01-11T04:00:20;46.50;;;23.90;;
12719;SDS011;6424;48.520;11.228;2024-01-11T04:03:06;50.10;;;24.93;;
12719;SDS011;6424;48.520;11.228;2024-01-11T04:05:50;50.43;;;26.67;;
12719;SDS011;6424;48.520;11.228;2024-01-11T04:08:34;49.17;;;24.03;;
12719;SDS011;6424;48.520;11.228;2024-01-11T04:11:20;54.10;;;25.07;;
12719;SDS011;6424;48.520;11.228;2024-01-11T04:14:04;53.57;;;27.20;;
12719;SDS011;6424;48.520;11.228;2024-01-11T04:16:49;53.37;;;26.20;;
12719;SDS011;6424;48.520;11.228;2024-01-11T04:19:33;50.53;;;25.73;;
12719;SDS011;6424;48.520;11.228;2024-01-11T04:22:18;47.20;;;24.13;;
12719;SDS011;6424;48.520;11.228;2024-01-11T04:25:02;59.47;;;28.67;;
12719;SDS011;6424;48.520;11.228;2024-01-11T04:27:46;56.13;;;27.53;;
12719;SDS011;6424;48.520;11.228;2024-01-11T04:30:31;56.57;;;29.10;;
12719;SDS011;6424;48.520;11.228;2024-01-11T04:33:15;55.93;;;28.80;;
12719;SDS011;6424;48.520;11.228;2024-01-11T04:35:59;53.30;;;26.70;;
12719;SDS011;6424;48.520;11.228;2024-01-11T04:38:43;58.83;;;29.33;;
12719;SDS011;6424;48.520;11.228;2024-01-11T04:41:28;53.80;;;27.60;;
12719;SDS011;6424;48.520;11.228;2024-01-11T04:44:12;55.60;;;26.97;;
12719;SDS011;6424;48.520;11.228;2024-01-11T04:46:56;59.67;;;28.53;;
12719;SDS011;6424;48.520;11.228;2024-01-11T04:49:40;58.37;;;28.63;;
12719;SDS011;6424;48.520;11.228;2024-01-11T04:52:24;59.63;;;31.03;;
12719;SDS011;6424;48.520;11.228;2024-01-11T04:55:09;66.00;;;30.67;;
12719;SDS011;6424;48.520;11.228;2024-01-11T04:57:53;64.73;;;30.47;;
12719;SDS011;6424;48.520;11.228;2024-01-11T05:00:37;65.43;;;29.80;;
12719;SDS011;6424;48.520;11.228;2024-01-11T05:03:22;60.90;;;27.70;;
12719;SDS011;6424;48.520;11.228;2024-01-11T05:06:06;61.97;;;32.13;;
12719;SDS011;6424;48.520;11.228;2024-01-11T05:08:51;56.17;;;29.00;;
12719;SDS011;6424;48.520;11.228;2024-01-11T05:11:36;57.60;;;30.47;;
12719;SDS011;6424;48.520;11.228;2024-01-11T05:14:20;70.70;;;31.13;;
12719;SDS011;6424;48.520;11.228;2024-01-11T05:17:05;74.30;;;33.10;;
12719;SDS011;6424;48.520;11.228;2024-01-11T05:19:49;65.53;;;32.00;;
12719;SDS011;6424;48.520;11.228;2024-01-11T05:22:33;72.03;;;31.77;;
12719;SDS011;6424;48.520;11.228;2024-01-11T05:25:17;72.27;;;32.53;;
12719;SDS011;6424;48.520;11.228;2024-01-11T05:28:02;89.23;;;38.60;;
12719;SDS011;6424;48.520;11.228;2024-01-11T05:30:47;101.17;;;34.60;;
12719;SDS011;6424;48.520;11.228;2024-01-11T05:33:31;98.60;;;34.27;;
12719;SDS011;6424;48.520;11.228;2024-01-11T05:36:16;68.47;;;32.03;;
12719;SDS011;6424;48.520;11.228;2024-01-11T05:39:00;66.13;;;32.20;;
12719;SDS011;6424;48.520;11.228;2024-01-11T05:41:44;66.83;;;32.53;;
12719;SDS011;6424;48.520;11.228;2024-01-11T05:44:29;63.37;;;33.13;;
12719;SDS011;6424;48.520;11.228;2024-01-11T05:47:13;77.47;;;31.83;;
12719;SDS011;6424;48.520;11.228;2024-01-11T05:49:57;69.47;;;32.67;;
12719;SDS011;6424;48.520;11.228;2024-01-11T05:52:41;92.23;;;35.43;;
12719;SDS011;6424;48.520;11.228;2024-01-11T05:55:26;88.03;;;33.87;;
12719;SDS011;6424;48.520;11.228;2024-01-11T05:58:10;72.80;;;33.53;;
12719;SDS011;6424;48.520;11.228;2024-01-11T06:00:54;85.80;;;32.17;;
12719;SDS011;6424;48.520;11.228;2024-01-11T06:03:39;69.03;;;32.97;;
12719;SDS011;6424;48.520;11.228;2024-01-11T06:06:24;70.73;;;32.83;;
12719;SDS011;6424;48.520;11.228;2024-01-11T06:09:08;69.27;;;35.03;;
12719;SDS011;6424;48.520;11.228;2024-01-11T06:11:53;76.97;;;34.40;;
12719;SDS011;6424;48.520;11.228;2024-01-11T06:14:37;64.40;;;31.67;;
12719;SDS011;6424;48.520;11.228;2024-01-11T06:17:21;64.17;;;32.53;;
12719;SDS011;6424;48.520;11.228;2024-01-11T06:20:06;70.63;;;33.73;;
12719;SDS011;6424;48.520;11.228;2024-01-11T06:22:50;70.40;;;34.47;;
12719;SDS011;6424;48.520;11.228;2024-01-11T06:25:34;70.83;;;33.87;;
12719;SDS011;6424;48.520;11.228;2024-01-11T06:28:19;76.87;;;33.07;;
12719;SDS011;6424;48.520;11.228;2024-01-11T06:31:03;70.43;;;32.20;;
12719;SDS011;6424;48.520;11.228;2024-01-11T06:33:47;68.90;;;31.90;;
12719;SDS011;6424;48.520;11.228;2024-01-11T06:36:31;61.37;;;30.97;;
12719;SDS011;6424;48.520;11.228;2024-01-11T06:39:15;73.80;;;33.63;;
12719;SDS011;6424;48.520;11.228;2024-01-11T06:42:00;87.67;;;34.40;;
12719;SDS011;6424;48.520;11.228;2024-01-11T06:44:45;101.87;;;33.97;;
12719;SDS011;6424;48.520;11.228;2024-01-11T06:47:29;68.83;;;31.83;;
12719;SDS011;6424;48.520;11.228;2024-01-11T06:50:13;70.03;;;32.07;;
12719;SDS011;6424;48.520;11.228;2024-01-11T06:52:57;125.20;;;35.93;;
12719;SDS011;6424;48.520;11.228;2024-01-11T06:55:42;78.07;;;33.53;;
12719;SDS011;6424;48.520;11.228;2024-01-11T06:58:27;62.53;;;32.27;;
12719;SDS011;6424;48.520;11.228;2024-01-11T07:01:11;74.57;;;33.70;;
12719;SDS011;6424;48.520;11.228;2024-01-11T07:03:56;59.47;;;29.53;;
12719;SDS011;6424;48.520;11.228;2024-01-11T07:06:40;66.27;;;33.20;;
12719;SDS011;6424;48.520;11.228;2024-01-11T07:09:25;68.77;;;32.63;;
12719;SDS011;6424;48.520;11.228;2024-01-11T07:12:09;82.07;;;36.57;;
12719;SDS011;6424;48.520;11.228;2024-01-11T07:14:54;73.77;;;35.57;;
12719;SDS011;6424;48.520;11.228;2024-01-11T07:17:38;63.63;;;32.40;;
12719;SDS011;6424;48.520;11.228;2024-01-11T07:20:22;74.03;;;32.93;;
12719;SDS011;6424;48.520;11.228;2024-01-11T07:23:06;75.23;;;34.83;;
12719;SDS011;6424;48.520;11.228;2024-01-11T07:25:50;74.13;;;37.07;;
12719;SDS011;6424;48.520;11.228;2024-01-11T07:28:35;69.20;;;35.57;;
12719;SDS011;6424;48.520;11.228;2024-01-11T07:31:20;80.60;;;36.13;;
12719;SDS011;6424;48.520;11.228;2024-01-11T07:34:05;73.03;;;34.37;;
12719;SDS011;6424;48.520;11.228;2024-01-11T07:36:49;78.03;;;35.73;;
12719;SDS011;6424;48.520;11.228;2024-01-11T07:39:35;65.80;;;32.67;;
12719;SDS011;6424;48.520;11.228;2024-01-11T07:42:20;68.10;;;31.80;;
12719;SDS011;6424;48.520;11.228;2024-01-11T07:45:04;69.57;;;35.27;;
12719;SDS011;6424;48.520;11.228;2024-01-11T07:47:49;68.67;;;33.57;;
12719;SDS011;6424;48.520;11.228;2024-01-11T07:50:34;72.97;;;34.23;;
12719;SDS011;6424;48.520;11.228;2024-01-11T07:53:19;69.10;;;34.83;;
12719;SDS011;6424;48.520;11.228;2024-01-11T07:56:04;67.37;;;33.33;;
12719;SDS011;6424;48.520;11.228;2024-01-11T07:58:48;68.03;;;33.83;;
12719;SDS011;6424;48.520;11.228;2024-01-11T08:01:32;73.67;;;36.53;;
12719;SDS011;6424;48.520;11.228;2024-01-11T08:04:19;80.17;;;39.50;;
12719;SDS011;6424;48.520;11.228;2024-01-11T08:07:04;80.27;;;34.43;;
12719;SDS011;6424;48.520;11.228;2024-01-11T08:09:49;86.37;;;36.83;;
12719;SDS011;6424;48.520;11.228;2024-01-11T08:12:33;74.27;;;32.03;;
12719;SDS011;6424;48.520;11.228;2024-01-11T08:15:18;115.17;;;33.13;;
12719;SDS011;6424;48.520;11.228;2024-01-11T08:18:02;62.17;;;31.07;;
12719;SDS011;6424;48.520;11.228;2024-01-11T08:20:47;82.83;;;32.50;;
12719;SDS011;6424;48.520;11.228;2024-01-11T08:23:32;61.00;;;31.70;;
12719;SDS011;6424;48.520;11.228;2024-01-11T08:26:16;63.07;;;31.07;;
12719;SDS011;6424;48.520;11.228;2024-01-11T08:29:03;93.13;;;34.90;;
12719;SDS011;6424;48.520;11.228;2024-01-11T08:31:48;90.33;;;35.73;;
12719;SDS011;6424;48.520;11.228;2024-01-11T08:34:33;79.07;;;35.03;;
12719;SDS011;6424;48.520;11.228;2024-01-11T08:37:18;74.47;;;35.83;;
12719;SDS011;6424;48.520;11.228;2024-01-11T08:40:02;79.07;;;33.93;;
12719;SDS011;6424;48.520;11.228;2024-01-11T08:42:50;76.23;;;35.00;;
12719;SDS011;6424;48.520;11.228;2024-01-11T08:45:35;67.53;;;34.77;;
12719;SDS011;6424;48.520;11.228;2024-01-11T08:48:19;63.13;;;32.93;;
12719;SDS011;6424;48.520;11.228;2024-01-11T08:51:03;69.43;;;36.80;;
12719;SDS011;6424;48.520;11.228;2024-01-11T08:53:48;72.40;;;35.83;;
12719;SDS011;6424;48.520;11.228;2024-01-11T08:56:32;64.97;;;35.60;;
12719;SDS011;6424;48.520;11.228;2024-01-11T08:59:17;67.63;;;35.13;;
12719;SDS011;6424;48.520;11.228;2024-01-11T09:02:01;66.43;;;34.73;;
12719;SDS011;6424;48.520;11.228;2024-01-11T09:04:46;65.37;;;33.27;;
12719;SDS011;6424;48.520;11.228;2024-01-11T09:07:31;63.23;;;33.73;;
12719;SDS011;6424;48.520;11.228;2024-01-11T09:10:16;64.17;;;32.57;;
12719;SDS011;6424;48.520;11.228;2024-01-11T09:13:00;62.00;;;33.23;;
12719;SDS011;6424;48.520;11.228;2024-01-11T09:15:44;58.20;;;31.57;;
12719;SDS011;6424;48.520;11.228;2024-01-11T09:18:29;55.33;;;30.90;;
12719;SDS011;6424;48.520;11.228;2024-01-11T09:21:14;59.63;;;32.70;;
12719;SDS011;6424;48.520;11.228;2024-01-11T09:23:59;57.57;;;32.50;;
12719;SDS011;6424;48.520;11.228;2024-01-11T09:26:43;63.00;;;33.10;;
12719;SDS011;6424;48.520;11.228;2024-01-11T09:29:27;53.07;;;31.07;;
12719;SDS011;6424;48.520;11.228;2024-01-11T09:32:12;58.47;;;31.90;;
12719;SDS011;6424;48.520;11.228;2024-01-11T09:34:57;53.57;;;31.30;;
12719;SDS011;6424;48.520;11.228;2024-01-11T09:37:41;53.63;;;31.53;;
12719;SDS011;6424;48.520;11.228;2024-01-11T09:40:26;52.20;;;30.67;;
12719;SDS011;6424;48.520;11.228;2024-01-11T09:43:11;51.67;;;29.63;;
12719;SDS011;6424;48.520;11.228;2024-01-11T09:45:56;47.20;;;29.53;;
12719;SDS011;6424;48.520;11.228;2024-01-11T09:48:40;50.63;;;29.63;;
12719;SDS011;6424;48.520;11.228;2024-01-11T09:51:29;48.57;;;29.63;;
12719;SDS011;6424;48.520;11.228;2024-01-11T09:54:14;49.17;;;28.30;;
12719;SDS011;6424;48.520;11.228;2024-01-11T09:57:00;48.83;;;30.27;;
12719;SDS011;6424;48.520;11.228;2024-01-11T09:59:47;48.67;;;29.80;;
12719;SDS011;6424;48.520;11.228;2024-01-11T10:02:35;49.03;;;30.07;;
12719;SDS011;6424;48.520;11.228;2024-01-11T10:05:19;50.47;;;29.90;;
12719;SDS011;6424;48.520;11.228;2024-01-11T10:08:03;51.70;;;31.13;;
12719;SDS011;6424;48.520;11.228;2024-01-11T10:10:48;52.97;;;30.67;;
12719;SDS011;6424;48.520;11.228;2024-01-11T10:13:32;55.13;;;30.63;;
12719;SDS011;6424;48.520;11.228;2024-01-11T10:16:16;47.40;;;29.43;;
12719;SDS011;6424;48.520;11.228;2024-01-11T10:19:01;51.27;;;30.63;;
12719;SDS011;6424;48.520;11.228;2024-01-11T10:21:45;51.13;;;30.17;;
12719;SDS011;6424;48.520;11.228;2024-01-11T10:24:30;50.30;;;30.90;;
12719;SDS011;6424;48.520;11.228;2024-01-11T10:27:14;46.40;;;29.57;;
12719;SDS011;6424;48.520;11.228;2024-01-11T10:29:59;52.33;;;31.33;;
12719;SDS011;6424;48.520;11.228;2024-01-11T10:32:43;56.93;;;32.00;;
12719;SDS011;6424;48.520;11.228;2024-01-11T10:35:28;51.17;;;29.70;;
12719;SDS011;6424;48.520;11.228;2024-01-11T10:38:12;50.33;;;29.87;;
12719;SDS011;6424;48.520;11.228;2024-01-11T10:40:59;49.57;;;31.40;;
12719;SDS011;6424;48.520;11.228;2024-01-11T10:43:44;48.13;;;29.97;;
12719;SDS011;6424;48.520;11.228;2024-01-11T10:46:31;52.57;;;29.43;;
12719;SDS011;6424;48.520;11.228;2024-01-11T10:49:18;50.77;;;31.47;;
12719;SDS011;6424;48.520;11.228;2024-01-11T10:52:03;46.10;;;30.23;;
12719;SDS011;6424;48.520;11.228;2024-01-11T10:54:49;46.50;;;28.87;;
12719;SDS011;6424;48.520;11.228;2024-01-11T10:57:34;51.87;;;31.07;;
12719;SDS011;6424;48.520;11.228;2024-01-11T11:00:19;49.33;;;30.97;;
12719;SDS011;6424;48.520;11.228;2024-01-11T11:03:05;47.43;;;31.17;;
12719;SDS011;6424;48.520;11.228;2024-01-11T11:05:53;45.30;;;29.33;;
12719;SDS011;6424;48.520;11.228;2024-01-11T11:08:39;53.53;;;31.43;;
12719;SDS011;6424;48.520;11.228;2024-01-11T11:11:24;47.70;;;29.40;;
12719;SDS011;6424;48.520;11.228;2024-01-11T11:14:09;54.37;;;33.10;;
12719;SDS011;6424;48.520;11.228;2024-01-11T11:16:55;49.83;;;32.10;;
12719;SDS011;6424;48.520;11.228;2024-01-11T11:19:39;53.33;;;33.43;;
12719;SDS011;6424;48.520;11.228;2024-01-11T11:22:26;52.07;;;32.50;;
12719;SDS011;6424;48.520;11.228;2024-01-11T11:25:11;51.77;;;32.63;;
12719;SDS011;6424;48.520;11.228;2024-01-11T11:28:08;59.30;;;34.40;;
12719;SDS011;6424;48.520;11.228;2024-01-11T11:30:55;52.73;;;33.87;;
12719;SDS011;6424;48.520;11.228;2024-01-11T11:33:46;50.77;;;32.43;;
12719;SDS011;6424;48.520;11.228;2024-01-11T11:36:33;57.53;;;35.57;;
12719;SDS011;6424;48.520;11.228;2024-01-11T11:39:18;58.03;;;33.00;;
12719;SDS011;6424;48.520;11.228;2024-01-11T11:42:03;61.83;;;34.43;;
12719;SDS011;6424;48.520;11.228;2024-01-11T11:44:48;55.93;;;33.73;;
12719;SDS011;6424;48.520;11.228;2024-01-11T11:47:34;56.60;;;33.60;;
12719;SDS011;6424;48.520;11.228;2024-01-11T11:50:21;54.70;;;34.13;;
12719;SDS011;6424;48.520;11.228;2024-01-11T11:53:07;57.73;;;37.17;;
12719;SDS011;6424;48.520;11.228;2024-01-11T11:55:54;54.47;;;34.50;;
12719;SDS011;6424;48.520;11.228;2024-01-11T11:58:39;56.90;;;35.27;;
12719;SDS011;6424;48.520;11.228;2024-01-11T12:01:24;53.63;;;34.70;;
12719;SDS011;6424;48.520;11.228;2024-01-11T12:04:08;51.80;;;33.93;;
12719;SDS011;6424;48.520;11.228;2024-01-11T12:06:53;56.07;;;33.97;;
12719;SDS011;6424;48.520;11.228;2024-01-11T12:09:38;59.50;;;33.57;;
12719;SDS011;6424;48.520;11.228;2024-01-11T12:12:22;53.63;;;33.60;;
12719;SDS011;6424;48.520;11.228;2024-01-11T12:15:07;51.60;;;32.10;;
12719;SDS011;6424;48.520;11.228;2024-01-11T12:17:57;55.33;;;33.30;;
12719;SDS011;6424;48.520;11.228;2024-01-11T12:20:42;53.53;;;33.00;;
12719;SDS011;6424;48.520;11.228;2024-01-11T12:23:27;53.57;;;32.13;;
12719;SDS011;6424;48.520;11.228;2024-01-11T12:26:16;55.33;;;33.63;;
12719;SDS011;6424;48.520;11.228;2024-01-11T12:29:05;60.03;;;34.33;;
12719;SDS011;6424;48.520;11.228;2024-01-11T12:31:50;56.03;;;35.50;;
12719;SDS011;6424;48.520;11.228;2024-01-11T12:34:36;55.20;;;34.13;;
12719;SDS011;6424;48.520;11.228;2024-01-11T12:37:21;57.20;;;34.40;;
12719;SDS011;6424;48.520;11.228;2024-01-11T12:40:05;53.63;;;33.43;;
12719;SDS011;6424;48.520;11.228;2024-01-11T12:42:53;55.40;;;33.50;;
12719;SDS011;6424;48.520;11.228;2024-01-11T12:45:38;54.83;;;34.40;;
12719;SDS011;6424;48.520;11.228;2024-01-11T12:48:23;52.47;;;32.30;;
12719;SDS011;6424;48.520;11.228;2024-01-11T12:51:07;57.13;;;35.17;;
12719;SDS011;6424;48.520;11.228;2024-01-11T12:53:52;49.83;;;32.53;;
12719;SDS011;6424;48.520;11.228;2024-01-11T12:56:40;53.47;;;33.60;;
12719;SDS011;6424;48.520;11.228;2024-01-11T12:59:25;51.83;;;32.17;;
12719;SDS011;6424;48.520;11.228;2024-01-11T13:02:10;55.37;;;35.30;;
12719;SDS011;6424;48.520;11.228;2024-01-11T13:04:58;49.60;;;32.13;;
12719;SDS011;6424;48.520;11.228;2024-01-11T13:07:45;50.77;;;32.23;;
12719;SDS011;6424;48.520;11.228;2024-01-11T13:10:30;52.33;;;33.47;;
12719;SDS011;6424;48.520;11.228;2024-01-11T13:13:15;50.40;;;32.67;;
12719;SDS011;6424;48.520;11.228;2024-01-11T13:15:59;51.10;;;31.87;;
12719;SDS011;6424;48.520;11.228;2024-01-11T13:18:44;53.30;;;33.13;;
12719;SDS011;6424;48.520;11.228;2024-01-11T13:21:31;57.13;;;34.13;;
12719;SDS011;6424;48.520;11.228;2024-01-11T13:24:15;56.93;;;34.87;;
12719;SDS011;6424;48.520;11.228;2024-01-11T13:26:59;54.33;;;33.80;;
12719;SDS011;6424;48.520;11.228;2024-01-11T13:29:44;54.73;;;34.27;;
12719;SDS011;6424;48.520;11.228;2024-01-11T13:32:28;57.03;;;34.57;;
12719;SDS011;6424;48.520;11.228;2024-01-11T13:35:12;53.93;;;34.07;;
12719;SDS011;6424;48.520;11.228;2024-01-11T13:37:56;53.10;;;33.10;;
12719;SDS011;6424;48.520;11.228;2024-01-11T13:40:40;54.27;;;33.33;;
12719;SDS011;6424;48.520;11.228;2024-01-11T13:43:26;53.43;;;33.63;;
12719;SDS011;6424;48.520;11.228;2024-01-11T13:46:10;50.53;;;32.80;;
12719;SDS011;6424;48.520;11.228;2024-01-11T13:48:55;51.13;;;32.23;;
12719;SDS011;6424;48.520;11.228;2024-01-11T13:51:40;52.37;;;32.87;;
12719;SDS011;6424;48.520;11.228;2024-01-11T13:54:25;53.87;;;33.77;;
12719;SDS011;6424;48.520;11.228;2024-01-11T13:57:09;54.83;;;33.67;;
12719;SDS011;6424;48.520;11.228;2024-01-11T13:59:53;53.73;;;34.80;;
12719;SDS011;6424;48.520;11.228;2024-01-11T14:02:37;51.53;;;33.43;;
12719;SDS011;6424;48.520;11.228;2024-01-11T14:05:23;58.90;;;34.63;;
12719;SDS011;6424;48.520;11.228;2024-01-11T14:08:07;50.87;;;33.27;;
12719;SDS011;6424;48.520;11.228;2024-01-11T14:10:52;51.13;;;32.90;;
12719;SDS011;6424;48.520;11.228;2024-01-11T14:13:38;55.37;;;36.67;;
12719;SDS011;6424;48.520;11.228;2024-01-11T14:16:22;56.67;;;34.47;;
12719;SDS011;6424;48.520;11.228;2024-01-11T14:19:06;56.67;;;35.63;;
12719;SDS011;6424;48.520;11.228;2024-01-11T14:21:52;52.50;;;35.27;;
12719;SDS011;6424;48.520;11.228;2024-01-11T14:24:37;61.50;;;40.70;;
12719;SDS011;6424;48.520;11.228;2024-01-11T14:27:21;57.53;;;38.27;;
12719;SDS011;6424;48.520;11.228;2024-01-11T14:30:06;53.47;;;34.23;;
12719;SDS011;6424;48.520;11.228;2024-01-11T14:32:51;52.83;;;34.33;;
12719;SDS011;6424;48.520;11.228;2024-01-11T14:35:35;55.00;;;34.73;;
12719;SDS011;6424;48.520;11.228;2024-01-11T14:38:19;52.17;;;32.60;;
12719;SDS011;6424;48.520;11.228;2024-01-11T14:41:03;51.57;;;32.67;;
12719;SDS011;6424;48.520;11.228;2024-01-11T14:43:48;53.37;;;33.27;;
12719;SDS011;6424;48.520;11.228;2024-01-11T14:46:32;62.70;;;36.17;;
12719;SDS011;6424;48.520;11.228;2024-01-11T14:49:16;55.43;;;34.87;;
12719;SDS011;6424;48.520;11.228;2024-01-11T14:52:00;62.87;;;39.33;;
12719;SDS011;6424;48.520;11.228;2024-01-11T14:54:45;54.47;;;34.50;;
12719;SDS011;6424;48.520;11.228;2024-01-11T14:57:31;54.40;;;33.53;;
12719;SDS011;6424;48.520;11.228;2024-01-11T15:00:15;54.13;;;33.90;;
12719;SDS011;6424;48.520;11.228;2024-01-11T15:02:59;54.37;;;34.10;;
12719;SDS011;6424;48.520;11.228;2024-01-11T15:05:44;52.40;;;32.97;;
12719;SDS011;6424;48.520;11.228;2024-01-11T15:08:28;56.57;;;35.63;;
12719;SDS011;6424;48.520;11.228;2024-01-11T15:11:12;47.70;;;31.77;;
12719;SDS011;6424;48.520;11.228;2024-01-11T15:13:56;53.13;;;34.67;;
12719;SDS011;6424;48.520;11.228;2024-01-11T15:16:40;52.53;;;31.83;;
12719;SDS011;6424;48.520;11.228;2024-01-11T15:19:25;48.03;;;30.67;;
12719;SDS011;6424;48.520;11.228;2024-01-11T15:22:09;57.10;;;33.90;;
12719;SDS011;6424;48.520;11.228;2024-01-11T15:24:56;58.10;;;33.63;;
12719;SDS011;6424;48.520;11.228;2024-01-11T15:27:40;56.03;;;35.13;;
12719;SDS011;6424;48.520;11.228;2024-01-11T15:30:25;51.10;;;33.40;;
12719;SDS011;6424;48.520;11.228;2024-01-11T15:33:10;52.63;;;33.03;;
12719;SDS011;6424;48.520;11.228;2024-01-11T15:35:55;54.33;;;33.67;;
12719;SDS011;6424;48.520;11.228;2024-01-11T15:38:39;52.63;;;31.63;;
12719;SDS011;6424;48.520;11.228;2024-01-11T15:41:23;50.93;;;31.33;;
12719;SDS011;6424;48.520;11.228;2024-01-11T15:44:07;53.10;;;33.97;;
12719;SDS011;6424;48.520;11.228;2024-01-11T15:46:52;57.57;;;33.87;;
12719;SDS011;6424;48.520;11.228;2024-01-11T15:49:36;53.00;;;32.67;;
12719;SDS011;6424;48.520;11.228;2024-01-11T15:52:20;51.33;;;31.53;;
12719;SDS011;6424;48.520;11.228;2024-01-11T15:55:05;46.63;;;29.97;;
12719;SDS011;6424;48.520;11.228;2024-01-11T15:57:52;53.87;;;33.07;;
12719;SDS011;6424;48.520;11.228;2024-01-11T16:00:38;47.97;;;31.27;;
12719;SDS011;6424;48.520;11.228;2024-01-11T16:03:23;53.60;;;33.03;;